^^
Station Historical Data
Daily Summary for January 11, 2017 Units:  Metric    English   Both
« Previous Day
Next Day »
Daily Weekly Monthly Yearly Custom
  High: Low: Average:
Temperature: 30.5 °C 22.9 °C 25.4 °C
Dew Point: 11 °C 1.5 °C 7.9 °C
Humidity: 42% 19% 34%
Wind Speed: 33.8km/h 0km/h 5.8km/h
Wind Gust: 40.2km/h - -
Wind- - SSW
Pressure: 1007.3 hPa 1003.3 hPa -
Precipitation: 0 mm    
Historical Graphs
 
 
Tabular Data for January 11, 2017
Time Temperature Dew Point Pressure Wind Wind Speed Wind Gust Humidity Rainfall Rate (Hourly) solar Conditions
00:35 26.5 °C 8.5 °C 1004.6 hPa South 9.7 km/h 16.1 km/h 32% 0 mm 0.0 W/m2
00:40 26.4 °C 8.4 °C 1005 hPa South 9.7 km/h 12.9 km/h 32% 0 mm 0.0 W/m2
00:45 26.4 °C 8.4 °C 1005 hPa South 13 km/h 16.1 km/h 32% 0 mm 0.0 W/m2
00:50 26.3 °C 8.3 °C 1004.6 hPa South 9.7 km/h 12.9 km/h 32% 0 mm 0.0 W/m2
00:55 26.3 °C 8.3 °C 1004.6 hPa South 9.7 km/h 12.9 km/h 32% 0 mm 0.0 W/m2
01:01 26.2 °C 8.2 °C 1004.6 hPa South 7.9 km/h 11.3 km/h 32% 0 mm 0.0 W/m2
01:05 26.1 °C 8.1 °C 1004.6 hPa South 7.9 km/h 9.7 km/h 32% 0 mm 0.0 W/m2
01:15 25.9 °C 7.9 °C 1004.6 hPa South 9.7 km/h 12.9 km/h 32% 0 mm 0.0 W/m2
01:21 25.8 °C 7.9 °C 1004.6 hPa Calm   8 km/h 32% 0 mm 0.0 W/m2
01:26 25.7 °C 7.8 °C 1004.6 hPa Calm     32% 0 mm 0.0 W/m2
01:31 25.7 °C 7.8 °C 1004.6 hPa Calm     32% 0 mm 0.0 W/m2
01:36 25.6 °C 8.1 °C 1004.6 hPa Calm     33% 0 mm 0.0 W/m2
01:41 25.6 °C 7.7 °C 1004.3 hPa Calm     32% 0 mm 0.0 W/m2
01:47 25.6 °C 7.7 °C 1004.3 hPa Calm     32% 0 mm 0.0 W/m2
01:52 25.5 °C 8 °C 1004.3 hPa South 4.7 km/h 11.3 km/h 33% 0 mm 0.0 W/m2
01:57 25.5 °C 7.6 °C 1004.3 hPa South 6.4 km/h 8 km/h 32% 0 mm 0.0 W/m2
02:02 25.5 °C 8 °C 1003.9 hPa South 7.9 km/h 9.7 km/h 33% 0 mm 0.0 W/m2
02:07 25.4 °C 8 °C 1003.9 hPa South 4.7 km/h 9.7 km/h 33% 0 mm 0.0 W/m2
02:12 25.4 °C 8 °C 1003.9 hPa South 6.4 km/h 9.7 km/h 33% 0 mm 0.0 W/m2
02:17 25.3 °C 7.9 °C 1003.9 hPa South 6.4 km/h 9.7 km/h 33% 0 mm 0.0 W/m2
02:22 25.3 °C 7.9 °C 1003.9 hPa South 9.7 km/h 9.7 km/h 33% 0 mm 0.0 W/m2
02:28 25.3 °C 8.3 °C 1003.9 hPa South 9.7 km/h 12.9 km/h 34% 0 mm 0.0 W/m2
02:37 25.3 °C 8.3 °C 1003.9 hPa South 7.9 km/h 9.7 km/h 34% 0 mm 0.0 W/m2
02:42 25.3 °C 8.3 °C 1003.9 hPa South 7.9 km/h 9.7 km/h 34% 0 mm 0.0 W/m2
02:47 25.3 °C 8.3 °C 1003.9 hPa South 9.7 km/h 11.3 km/h 34% 0 mm 0.0 W/m2
02:52 25.3 °C 8.3 °C 1003.9 hPa South 7.9 km/h 9.7 km/h 34% 0 mm 0.0 W/m2
02:58 25.3 °C 8.3 °C 1003.9 hPa South 9.7 km/h 11.3 km/h 34% 0 mm 0.0 W/m2
03:03 25.3 °C 8.3 °C 1003.9 hPa South 11.1 km/h 14.5 km/h 34% 0 mm 0.0 W/m2
03:08 25.3 °C 8.3 °C 1003.9 hPa South 9.7 km/h 12.9 km/h 34% 0 mm 0.0 W/m2
03:13 25.3 °C 8.3 °C 1003.9 hPa South 7.9 km/h 11.3 km/h 34% 0 mm 0.0 W/m2
03:18 25.3 °C 8.3 °C 1003.9 hPa South 9.7 km/h 12.9 km/h 34% 0 mm 0.0 W/m2
03:23 25.3 °C 8.3 °C 1003.9 hPa South 4.7 km/h 9.7 km/h 34% 0 mm 0.0 W/m2
03:28 25.2 °C 8.6 °C 1003.9 hPa Calm     35% 0 mm 0.0 W/m2
03:38 25.2 °C 8.6 °C 1003.6 hPa Calm     35% 0 mm 0.0 W/m2
03:43 25.3 °C 8.7 °C 1003.6 hPa Calm     35% 0 mm 0.0 W/m2
03:49 25.3 °C 8.7 °C 1003.6 hPa Calm     35% 0 mm 0.0 W/m2
03:54 25.3 °C 8.3 °C 1003.6 hPa Calm     34% 0 mm 0.0 W/m2
03:59 25.2 °C 8.6 °C 1003.3 hPa Calm     35% 0 mm 0.0 W/m2
04:09 25.1 °C 8.6 °C 1003.3 hPa Calm     35% 0 mm 0.0 W/m2
04:14 24.9 °C 8.4 °C 1003.3 hPa Calm     35% 0 mm 0.0 W/m2
04:19 24.7 °C 8.6 °C 1003.3 hPa Calm     36% 0 mm 0.0 W/m2
04:24 24.6 °C 8.9 °C 1003.3 hPa Calm     37% 0 mm 0.0 W/m2
04:30 24.4 °C 8.8 °C 1003.3 hPa Calm     37% 0 mm 0.0 W/m2
04:35 24.3 °C 8.7 °C 1003.3 hPa Calm     37% 0 mm 0.0 W/m2
04:40 24.2 °C 9 °C 1003.6 hPa Calm     38% 0 mm 0.0 W/m2
04:45 24.1 °C 8.9 °C 1003.3 hPa Calm     38% 0 mm 0.0 W/m2
04:50 24 °C 8.8 °C 1003.6 hPa Calm     38% 0 mm 0.0 W/m2
04:56 23.9 °C 8.7 °C 1003.3 hPa Calm     38% 0 mm 0.0 W/m2
05:01 23.8 °C 8.6 °C 1003.3 hPa Calm     38% 0 mm 0.0 W/m2
05:07 23.8 °C 8.6 °C 1003.3 hPa Calm     38% 0 mm 0.0 W/m2
05:12 23.7 °C 8.9 °C 1003.3 hPa Calm     39% 0 mm 0.0 W/m2
05:17 23.6 °C 8.8 °C 1003.3 hPa Calm     39% 0 mm 0.0 W/m2
05:23 23.6 °C 8.8 °C 1003.3 hPa Calm     39% 0 mm 0.0 W/m2
05:28 23.4 °C 9 °C 1003.3 hPa Calm     40% 0 mm 0.0 W/m2
05:33 23.3 °C 8.9 °C 1003.6 hPa Calm     40% 0 mm 0.0 W/m2
05:38 23.2 °C 9.2 °C 1003.6 hPa Calm     41% 0 mm 0.0 W/m2
05:44 23.1 °C 9.1 °C 1003.6 hPa Calm     41% 0 mm 0.0 W/m2
05:49 23.1 °C 9.1 °C 1003.6 hPa Calm     41% 0 mm 0.0 W/m2
05:54 23.1 °C 9.1 °C 1003.6 hPa Calm     41% 0 mm 0.0 W/m2
05:59 23.1 °C 9.1 °C 1003.6 hPa Calm     41% 0 mm 0.0 W/m2
06:04 23.1 °C 9.1 °C 1003.6 hPa Calm     41% 0 mm 0.0 W/m2
06:09 23.1 °C 9.1 °C 1003.6 hPa Calm     41% 0 mm 5.0 W/m2
06:14 23.1 °C 9.1 °C 1003.9 hPa Calm     41% 0 mm 9.0 W/m2
06:19 23 °C 9.4 °C 1003.9 hPa Calm     42% 0 mm 12.0 W/m2
06:29 22.9 °C 9.3 °C 1003.9 hPa Calm     42% 0 mm 18.0 W/m2
06:35 23 °C 9.4 °C 1003.9 hPa Calm     42% 0 mm 35.0 W/m2
06:40 23.2 °C 9.2 °C 1003.9 hPa Calm     41% 0 mm 46.0 W/m2
06:44 23.4 °C 9.4 °C 1003.9 hPa Calm     41% 0 mm 62.0 W/m2
06:52 23.6 °C 9.2 °C 1003.9 hPa Calm     40% 0 mm 81.0 W/m2
06:54 23.9 °C 9.1 °C 1003.9 hPa Calm     39% 0 mm 118.0 W/m2
07:04 24.4 °C 9.2 °C 1003.9 hPa Calm     38% 0 mm 167.0 W/m2
07:26 25.1 °C 9 °C 1003.9 hPa Calm     36% 0 mm 220.0 W/m2
07:35 25.4 °C 8.8 °C 1004.6 hPa Calm     35% 0 mm 265.0 W/m2
07:52 25.7 °C 8.7 °C 1004.6 hPa Calm     34% 0 mm 297.0 W/m2
08:07 26.3 °C 8.3 °C 1004.6 hPa Calm   1.6 km/h 32% 0 mm 352.0 W/m2
08:15 26.7 °C 8.2 °C 1004.6 hPa Calm     31% 0 mm 394.0 W/m2
08:38 27.3 °C 8.2 °C 1005 hPa South 3.2 km/h 4.8 km/h 30% 0 mm 445.0 W/m2
08:47 27.7 °C 8 °C 1005 hPa Calm     29% 0 mm 497.0 W/m2
09:02 28.3 °C 9.1 °C 1005 hPa Calm     30% 0 mm 547.0 W/m2
09:17 28.9 °C 9.1 °C 1005 hPa Calm     29% 0 mm 596.0 W/m2
09:40 29.2 °C 8.8 °C 1005 hPa Calm     28% 0 mm 649.0 W/m2
09:55 29.7 °C 8.7 °C 1005 hPa Calm     27% 0 mm 696.0 W/m2
10:07 30.3 °C 9.2 °C 1004.6 hPa Calm   11.3 km/h 27% 0 mm 735.0 W/m2
10:16 30.5 °C 11 °C 1005 hPa South 3.2 km/h 4.8 km/h 30% 0 mm 759.0 W/m2
19:00 28.8 °C 6.8 °C 1003.3 hPa SSW 28.8 km/h 40.2 km/h 25% 0 mm 120.0 W/m2
19:06 28.7 °C 6.1 °C 1003.6 hPa SSW 20.9 km/h 38.6 km/h 24% 0 mm 105.0 W/m2
19:11 28.6 °C 4.8 °C 1003.6 hPa SSW 33.8 km/h 37 km/h 22% 0 mm 84.0 W/m2
19:13 28.4 °C 4.6 °C 1003.9 hPa SSW 32 km/h 33.8 km/h 22% 0 mm 62.0 W/m2
19:31 28.2 °C 5.1 °C 1003.9 hPa South 33.8 km/h 33.8 km/h 23% 0 mm 51.0 W/m2
19:46 27.8 °C 4.8 °C 1004.3 hPa South 20.9 km/h 27.4 km/h 23% 0 mm 26.0 W/m2
19:58 27.3 °C 4.3 °C 1004.6 hPa SSW 22.7 km/h 30.6 km/h 23% 0 mm 5.0 W/m2
20:07 27.1 °C 1.5 °C 1005 hPa SSW 20.9 km/h 25.7 km/h 19% 0 mm 0.0 W/m2
20:13 26.8 °C 2.6 °C 1005.6 hPa SSW 14.3 km/h 20.9 km/h 21% 0 mm 0.0 W/m2
20:29 26.7 °C 2.6 °C 1005.6 hPa SSW 16.3 km/h 19.3 km/h 21% 0 mm 0.0 W/m2
20:37 26.5 °C 3.7 °C 1006 hPa SW 16.3 km/h 20.9 km/h 23% 0 mm 0.0 W/m2
21:42 24.9 °C 5.1 °C 1006.7 hPa SSW 16.3 km/h 20.9 km/h 28% 0 mm 0.0 W/m2
21:51 24.7 °C 6 °C 1007 hPa SSW 14.3 km/h 19.3 km/h 30% 0 mm 0.0 W/m2
21:54 24.6 °C 5.9 °C 1007 hPa SSW 9.7 km/h 16.1 km/h 30% 0 mm 0.0 W/m2
22:01 24.5 °C 6.3 °C 1007.3 hPa SSW 7.9 km/h 16.1 km/h 31% 0 mm 0.0 W/m2
22:04 24.4 °C 6.6 °C 1007 hPa SSW 14.3 km/h 19.3 km/h 32% 0 mm 0.0 W/m2
22:13 24.3 °C 6.5 °C 1007.3 hPa SSW 9.7 km/h 14.5 km/h 32% 0 mm 0.0 W/m2
22:19 24 °C 6.7 °C 1007.3 hPa SSW 14.3 km/h 20.9 km/h 33% 0 mm 0.0 W/m2
22:36 23.8 °C 7.4 °C 1007.3 hPa South 11.1 km/h 16.1 km/h 35% 0 mm 0.0 W/m2
22:46 23.4 °C 7.9 °C 1007.3 hPa SSW 16.3 km/h 19.3 km/h 37% 0 mm 0.0 W/m2
Canyon Roadhouse, Fishriver Canyon, Namibia
Compliments of Weather Underground - 2.25 mb